sensor_id;sensor_type;location;lat;lon;timestamp;temperature;humidity
65766;SHT31;52915;53.718;19.946;2023-12-04T00:18:28;-0.88;80.24
65766;SHT31;52915;53.718;19.946;2023-12-04T00:35:30;-0.82;80.36
65766;SHT31;52915;53.718;19.946;2023-12-04T00:40:34;-0.79;80.31
65766;SHT31;52915;53.718;19.946;2023-12-04T00:59:18;-0.62;80.37
65766;SHT31;52915;53.718;19.946;2023-12-04T01:14:27;-0.53;80.54
65766;SHT31;52915;53.718;19.946;2023-12-04T01:19:31;-0.47;80.54
65766;SHT31;52915;53.718;19.946;2023-12-04T01:24:35;-0.50;80.43
65766;SHT31;52915;53.718;19.946;2023-12-04T01:29:38;-0.54;80.57
65766;SHT31;52915;53.718;19.946;2023-12-04T01:34:42;-0.51;80.63
65766;SHT31;52915;53.718;19.946;2023-12-04T02:11:23;-0.72;80.62
65766;SHT31;52915;53.718;19.946;2023-12-04T02:29:29;-0.58;80.75
65766;SHT31;52915;53.718;19.946;2023-12-04T02:45:09;-0.54;80.67
65766;SHT31;52915;53.718;19.946;2023-12-04T02:55:20;-0.47;80.55
65766;SHT31;52915;53.718;19.946;2023-12-04T03:07:13;-0.52;80.36
65766;SHT31;52915;53.718;19.946;2023-12-04T03:19:39;-0.61;80.33
65766;SHT31;52915;53.718;19.946;2023-12-04T03:54:46;-0.70;80.75
65766;SHT31;52915;53.718;19.946;2023-12-04T03:59:56;-0.73;80.84
65766;SHT31;52915;53.718;19.946;2023-12-04T04:05:00;-0.73;80.90
65766;SHT31;52915;53.718;19.946;2023-12-04T04:16:30;-0.69;80.96
65766;SHT31;52915;53.718;19.946;2023-12-04T04:21:34;-0.67;80.99
65766;SHT31;52915;53.718;19.946;2023-12-04T04:26:38;-0.64;80.98
65766;SHT31;52915;53.718;19.946;2023-12-04T04:37:13;-0.64;80.99
65766;SHT31;52915;53.718;19.946;2023-12-04T04:42:19;-0.62;81.00
65766;SHT31;52915;53.718;19.946;2023-12-04T04:47:22;-0.61;81.00
65766;SHT31;52915;53.718;19.946;2023-12-04T05:04:17;-0.61;80.97
65766;SHT31;52915;53.718;19.946;2023-12-04T05:09:21;-0.61;80.96
65766;SHT31;52915;53.718;19.946;2023-12-04T05:21:15;-0.63;80.90
65766;SHT31;52915;53.718;19.946;2023-12-04T05:33:22;-0.74;81.15
65766;SHT31;52915;53.718;19.946;2023-12-04T05:38:26;-0.77;81.33
65766;SHT31;52915;53.718;19.946;2023-12-04T05:43:30;-0.69;81.29
65766;SHT31;52915;53.718;19.946;2023-12-04T05:57:58;-0.65;81.20
65766;SHT31;52915;53.718;19.946;2023-12-04T06:09:52;-0.69;81.29
65766;SHT31;52915;53.718;19.946;2023-12-04T06:14:57;-0.68;81.21
65766;SHT31;52915;53.718;19.946;2023-12-04T06:33:27;-0.82;81.24
65766;SHT31;52915;53.718;19.946;2023-12-04T06:38:32;-0.86;81.41
65766;SHT31;52915;53.718;19.946;2023-12-04T07:01:46;-1.08;81.51
65766;SHT31;52915;53.718;19.946;2023-12-04T07:06:50;-1.15;81.25
65766;SHT31;52915;53.718;19.946;2023-12-04T07:11:56;-1.16;81.19
65766;SHT31;52915;53.718;19.946;2023-12-04T07:16:59;-1.15;81.11
65766;SHT31;52915;53.718;19.946;2023-12-04T07:22:03;-1.20;81.14
65766;SHT31;52915;53.718;19.946;2023-12-04T07:27:08;-1.22;81.13
65766;SHT31;52915;53.718;19.946;2023-12-04T07:32:16;-1.27;81.17
65766;SHT31;52915;53.718;19.946;2023-12-04T07:37:21;-1.27;81.25
65766;SHT31;52915;53.718;19.946;2023-12-04T07:42:27;-1.25;81.24
65766;SHT31;52915;53.718;19.946;2023-12-04T07:47:31;-1.30;81.22
65766;SHT31;52915;53.718;19.946;2023-12-04T07:52:35;-1.34;81.46
65766;SHT31;52915;53.718;19.946;2023-12-04T07:57:39;-1.29;81.39
65766;SHT31;52915;53.718;19.946;2023-12-04T08:02:46;-1.27;81.32
65766;SHT31;52915;53.718;19.946;2023-12-04T08:07:50;-1.15;80.90
65766;SHT31;52915;53.718;19.946;2023-12-04T08:12:55;-1.09;80.41
65766;SHT31;52915;53.718;19.946;2023-12-04T08:17:58;-1.17;80.32
65766;SHT31;52915;53.718;19.946;2023-12-04T08:23:05;-1.21;80.41
65766;SHT31;52915;53.718;19.946;2023-12-04T08:35:17;-1.30;80.35
65766;SHT31;52915;53.718;19.946;2023-12-04T08:46:18;-1.44;80.32
65766;SHT31;52915;53.718;19.946;2023-12-04T09:10:09;-1.36;80.39
65766;SHT31;52915;53.718;19.946;2023-12-04T09:21:00;-1.28;80.14
65766;SHT31;52915;53.718;19.946;2023-12-04T09:39:03;-1.12;80.05
65766;SHT31;52915;53.718;19.946;2023-12-04T09:44:07;-1.06;80.13
65766;SHT31;52915;53.718;19.946;2023-12-04T09:56:27;-0.94;80.28
65766;SHT31;52915;53.718;19.946;2023-12-04T11:07:19;-0.43;80.75
65766;SHT31;52915;53.718;19.946;2023-12-04T11:17:49;-0.49;80.80
65766;SHT31;52915;53.718;19.946;2023-12-04T11:23:03;-0.41;80.99
65766;SHT31;52915;53.718;19.946;2023-12-04T11:28:09;-0.29;80.96
65766;SHT31;52915;53.718;19.946;2023-12-04T11:33:17;-0.23;80.84
65766;SHT31;52915;53.718;19.946;2023-12-04T11:38:26;-0.20;80.86
65766;SHT31;52915;53.718;19.946;2023-12-04T11:43:30;-0.09;80.78
65766;SHT31;52915;53.718;19.946;2023-12-04T11:48:40;-0.07;80.62
65766;SHT31;52915;53.718;19.946;2023-12-04T11:53:48;-0.05;80.60
65766;SHT31;52915;53.718;19.946;2023-12-04T11:58:54;-0.07;80.56
65766;SHT31;52915;53.718;19.946;2023-12-04T12:04:10;-0.05;80.54
65766;SHT31;52915;53.718;19.946;2023-12-04T12:09:15;-0.06;80.50
65766;SHT31;52915;53.718;19.946;2023-12-04T12:14:20;-0.04;80.50
65766;SHT31;52915;53.718;19.946;2023-12-04T12:19:26;-0.01;80.29
65766;SHT31;52915;53.718;19.946;2023-12-04T12:24:31;-0.01;80.36
65766;SHT31;52915;53.718;19.946;2023-12-04T12:29:35;-0.00;80.26
65766;SHT31;52915;53.718;19.946;2023-12-04T12:41:07;-0.19;80.52
65766;SHT31;52915;53.718;19.946;2023-12-04T12:46:11;-0.14;80.54
65766;SHT31;52915;53.718;19.946;2023-12-04T12:51:15;-0.15;80.50
65766;SHT31;52915;53.718;19.946;2023-12-04T12:56:20;-0.03;80.43
65766;SHT31;52915;53.718;19.946;2023-12-04T13:01:30;0.04;80.14
65766;SHT31;52915;53.718;19.946;2023-12-04T13:06:37;0.05;80.06
65766;SHT31;52915;53.718;19.946;2023-12-04T13:11:41;0.01;80.04
65766;SHT31;52915;53.718;19.946;2023-12-04T13:22:33;0.05;80.36
65766;SHT31;52915;53.718;19.946;2023-12-04T13:34:12;0.23;79.92
65766;SHT31;52915;53.718;19.946;2023-12-04T13:39:15;0.26;79.68
65766;SHT31;52915;53.718;19.946;2023-12-04T14:11:10;0.10;79.77
65766;SHT31;52915;53.718;19.946;2023-12-04T14:16:15;0.11;79.80
65766;SHT31;52915;53.718;19.946;2023-12-04T14:34:28;0.02;79.92
65766;SHT31;52915;53.718;19.946;2023-12-04T14:39:32;0.05;79.94
65766;SHT31;52915;53.718;19.946;2023-12-04T14:56:54;-0.09;79.04
65766;SHT31;52915;53.718;19.946;2023-12-04T15:02:37;-0.17;78.99
65766;SHT31;52915;53.718;19.946;2023-12-04T15:08:00;-0.21;79.08
65766;SHT31;52915;53.718;19.946;2023-12-04T15:13:14;-0.24;78.96
65766;SHT31;52915;53.718;19.946;2023-12-04T15:25:39;-0.35;78.69
65766;SHT31;52915;53.718;19.946;2023-12-04T15:30:43;-0.52;78.76
65766;SHT31;52915;53.718;19.946;2023-12-04T15:41:19;-0.69;79.30
65766;SHT31;52915;53.718;19.946;2023-12-04T15:46:25;-0.72;79.21
65766;SHT31;52915;53.718;19.946;2023-12-04T16:19:47;-1.12;79.64
65766;SHT31;52915;53.718;19.946;2023-12-04T16:41:46;-1.21;79.97
65766;SHT31;52915;53.718;19.946;2023-12-04T16:46:51;-1.20;80.05
65766;SHT31;52915;53.718;19.946;2023-12-04T16:58:22;-1.23;80.19
65766;SHT31;52915;53.718;19.946;2023-12-04T17:15:36;-1.50;80.93
65766;SHT31;52915;53.718;19.946;2023-12-04T17:20:43;-1.48;81.08
65766;SHT31;52915;53.718;19.946;2023-12-04T17:25:52;-1.41;81.04
65766;SHT31;52915;53.718;19.946;2023-12-04T17:51:56;-1.16;80.56
65766;SHT31;52915;53.718;19.946;2023-12-04T18:39:53;-1.61;81.90
65766;SHT31;52915;53.718;19.946;2023-12-04T18:45:05;-1.54;81.68
65766;SHT31;52915;53.718;19.946;2023-12-04T18:50:12;-1.48;81.75
65766;SHT31;52915;53.718;19.946;2023-12-04T18:55:21;-1.37;81.52
65766;SHT31;52915;53.718;19.946;2023-12-04T19:00:29;-1.35;81.21
65766;SHT31;52915;53.718;19.946;2023-12-04T19:05:38;-1.40;81.13
65766;SHT31;52915;53.718;19.946;2023-12-04T19:10:48;-1.62;81.29
65766;SHT31;52915;53.718;19.946;2023-12-04T19:50:22;-1.84;82.24
65766;SHT31;52915;53.718;19.946;2023-12-04T19:55:28;-1.81;82.16
65766;SHT31;52915;53.718;19.946;2023-12-04T20:00:35;-1.86;82.06
65766;SHT31;52915;53.718;19.946;2023-12-04T20:11:26;-2.21;82.85
65766;SHT31;52915;53.718;19.946;2023-12-04T20:16:33;-2.38;83.25
65766;SHT31;52915;53.718;19.946;2023-12-04T20:21:39;-2.40;83.64
65766;SHT31;52915;53.718;19.946;2023-12-04T20:26:47;-2.32;83.52
65766;SHT31;52915;53.718;19.946;2023-12-04T20:31:59;-2.41;83.57
65766;SHT31;52915;53.718;19.946;2023-12-04T20:37:05;-2.50;83.61
65766;SHT31;52915;53.718;19.946;2023-12-04T20:42:13;-2.40;83.66
65766;SHT31;52915;53.718;19.946;2023-12-04T20:47:29;-2.40;83.38
65766;SHT31;52915;53.718;19.946;2023-12-04T20:52:36;-2.47;83.35
65766;SHT31;52915;53.718;19.946;2023-12-04T20:57:42;-2.52;83.36
65766;SHT31;52915;53.718;19.946;2023-12-04T21:02:52;-2.60;83.40
65766;SHT31;52915;53.718;19.946;2023-12-04T21:08:00;-2.62;83.68
65766;SHT31;52915;53.718;19.946;2023-12-04T21:13:05;-2.64;83.86
65766;SHT31;52915;53.718;19.946;2023-12-04T21:18:11;-2.68;83.74
65766;SHT31;52915;53.718;19.946;2023-12-04T21:23:15;-2.84;83.90
65766;SHT31;52915;53.718;19.946;2023-12-04T21:28:19;-2.79;84.00
65766;SHT31;52915;53.718;19.946;2023-12-04T21:33:29;-2.97;84.12
65766;SHT31;52915;53.718;19.946;2023-12-04T21:38:34;-3.04;84.43
65766;SHT31;52915;53.718;19.946;2023-12-04T21:43:38;-2.97;84.55
65766;SHT31;52915;53.718;19.946;2023-12-04T21:48:42;-3.05;84.61
65766;SHT31;52915;53.718;19.946;2023-12-04T21:53:46;-3.14;84.83
65766;SHT31;52915;53.718;19.946;2023-12-04T21:58:51;-3.17;84.74
65766;SHT31;52915;53.718;19.946;2023-12-04T22:03:56;-3.23;84.85
65766;SHT31;52915;53.718;19.946;2023-12-04T22:09:00;-3.44;84.96
65766;SHT31;52915;53.718;19.946;2023-12-04T22:14:05;-3.44;85.08
65766;SHT31;52915;53.718;19.946;2023-12-04T22:19:09;-3.54;84.85
65766;SHT31;52915;53.718;19.946;2023-12-04T22:24:14;-3.65;85.21
65766;SHT31;52915;53.718;19.946;2023-12-04T22:29:18;-3.67;85.32
65766;SHT31;52915;53.718;19.946;2023-12-04T22:34:22;-3.68;85.19
65766;SHT31;52915;53.718;19.946;2023-12-04T22:39:27;-3.70;85.14
65766;SHT31;52915;53.718;19.946;2023-12-04T22:44:31;-3.79;84.97
65766;SHT31;52915;53.718;19.946;2023-12-04T22:49:35;-3.82;84.90
65766;SHT31;52915;53.718;19.946;2023-12-04T22:54:39;-4.06;84.96
65766;SHT31;52915;53.718;19.946;2023-12-04T22:59:43;-4.24;85.71
65766;SHT31;52915;53.718;19.946;2023-12-04T23:04:47;-4.20;86.14
65766;SHT31;52915;53.718;19.946;2023-12-04T23:09:52;-4.09;86.21
65766;SHT31;52915;53.718;19.946;2023-12-04T23:14:56;-4.10;85.90
65766;SHT31;52915;53.718;19.946;2023-12-04T23:20:00;-4.13;86.05
65766;SHT31;52915;53.718;19.946;2023-12-04T23:25:04;-4.22;86.00
65766;SHT31;52915;53.718;19.946;2023-12-04T23:30:10;-4.21;86.29
65766;SHT31;52915;53.718;19.946;2023-12-04T23:35:14;-4.14;86.40
65766;SHT31;52915;53.718;19.946;2023-12-04T23:40:19;-4.17;86.14
65766;SHT31;52915;53.718;19.946;2023-12-04T23:45:23;-4.30;86.17
65766;SHT31;52915;53.718;19.946;2023-12-04T23:50:28;-4.35;86.29
65766;SHT31;52915;53.718;19.946;2023-12-04T23:55:32;-4.28;86.43
